Time;durP1;ratioP1;P1;durP2;ratioP2;P2;SDS_P1;SDS_P2;PMS_P1;PMS_P2;Temp;Humidity;BMP_temperature;BMP_pressure;BME280_temperature;BME280_humidity;BME280_pressure;Samples;Min_cycle;Max_cycle;Signal;HPM_P1;HPM_P2
2021/11/11 00:00:13;;;;;;;30.05;19.33;;;9.90;98.70;;;;;;5019088;28;20083;-86
2021/11/11 00:02:39;;;;;;;38.15;21.27;;;9.90;98.70;;;;;;5018216;28;20409;-87
2021/11/11 00:05:06;;;;;;;38.63;21.20;;;9.80;98.60;;;;;;5018962;28;20034;-87
2021/11/11 00:07:32;;;;;;;35.00;21.05;;;9.90;98.70;;;;;;5018812;28;20049;-87
2021/11/11 00:09:58;;;;;;;39.03;21.40;;;9.90;98.70;;;;;;5018131;28;20048;-86
2021/11/11 00:12:25;;;;;;;27.52;19.23;;;9.90;98.70;;;;;;5019297;28;20041;-87
2021/11/11 00:14:52;;;;;;;36.83;22.10;;;9.90;98.70;;;;;;5018830;28;20052;-87
2021/11/11 00:17:19;;;;;;;30.13;19.23;;;9.90;98.70;;;;;;5017981;28;20153;-87
2021/11/11 00:19:47;;;;;;;40.60;23.02;;;9.90;98.60;;;;;;5018554;28;20037;-87
2021/11/11 00:22:13;;;;;;;29.98;19.33;;;9.90;98.60;;;;;;5018468;28;20048;-88
2021/11/11 00:24:38;;;;;;;26.58;18.60;;;9.90;98.70;;;;;;5017694;28;20033;-86
2021/11/11 00:27:04;;;;;;;25.15;18.67;;;9.90;98.60;;;;;;5018844;28;20053;-86
2021/11/11 00:29:29;;;;;;;33.88;20.42;;;9.90;98.60;;;;;;5018454;28;20481;-86
2021/11/11 00:31:55;;;;;;;31.92;19.25;;;9.90;98.60;;;;;;5017507;28;20416;-86
2021/11/11 00:34:21;;;;;;;36.20;20.88;;;9.90;98.60;;;;;;5018811;28;20068;-87
2021/11/11 00:36:46;;;;;;;31.33;19.02;;;9.90;98.60;;;;;;5018649;28;20107;-87
2021/11/11 00:39:12;;;;;;;32.05;19.77;;;9.90;98.50;;;;;;5018109;28;20091;-87
2021/11/11 00:41:37;;;;;;;40.28;20.50;;;9.90;98.50;;;;;;5017962;28;20444;-87
2021/11/11 00:44:03;;;;;;;34.00;19.52;;;9.90;98.50;;;;;;5017341;28;20099;-87
2021/11/11 00:46:29;;;;;;;25.60;16.92;;;9.90;98.50;;;;;;5017714;28;20053;-87
2021/11/11 00:48:55;;;;;;;30.27;18.67;;;9.90;98.50;;;;;;5017753;28;20068;-87
2021/11/11 00:51:21;;;;;;;38.70;21.80;;;9.90;98.50;;;;;;5017861;28;20473;-86
2021/11/11 00:53:47;;;;;;;34.80;20.40;;;9.90;98.50;;;;;;5018652;28;20053;-86
2021/11/11 00:56:12;;;;;;;27.13;18.05;;;9.90;98.50;;;;;;5018017;28;20030;-87
2021/11/11 00:58:38;;;;;;;36.30;21.23;;;9.90;98.50;;;;;;5017299;28;20505;-86
2021/11/11 01:01:03;;;;;;;35.58;19.83;;;9.90;98.50;;;;;;5017433;28;20048;-87
2021/11/11 01:03:34;;;;;;;34.03;20.52;;;9.90;98.40;;;;;;5018148;28;20041;-87
2021/11/11 01:06:00;;;;;;;30.80;18.58;;;9.90;98.40;;;;;;5016963;28;20034;-87
2021/11/11 01:08:27;;;;;;;38.20;20.17;;;9.90;98.40;;;;;;5017748;28;20041;-87
2021/11/11 01:10:53;;;;;;;29.75;18.52;;;9.90;98.40;;;;;;5018010;28;20033;-87
2021/11/11 01:13:19;;;;;;;30.17;19.88;;;9.90;98.40;;;;;;5017437;28;20037;-87
2021/11/11 01:15:44;;;;;;;30.27;18.92;;;9.90;98.40;;;;;;5017969;28;20044;-88
2021/11/11 01:18:10;;;;;;;35.40;20.20;;;9.90;98.50;;;;;;5017699;28;20132;-88
2021/11/11 01:20:36;;;;;;;32.75;20.23;;;9.90;98.50;;;;;;5017223;28;20384;-87
2021/11/11 01:23:01;;;;;;;30.45;18.48;;;9.90;98.50;;;;;;5017315;28;20077;-88
2021/11/11 01:25:31;;;;;;;33.25;19.58;;;9.90;98.80;;;;;;5018054;28;20056;-87
2021/11/11 01:27:57;;;;;;;29.13;19.38;;;9.90;98.40;;;;;;5016959;28;20462;-86
2021/11/11 01:30:22;;;;;;;27.60;18.88;;;9.90;98.40;;;;;;5017536;28;20042;-87
2021/11/11 01:32:48;;;;;;;37.35;20.90;;;9.90;98.50;;;;;;5017851;28;20412;-87
2021/11/11 01:35:15;;;;;;;35.25;18.92;;;9.80;98.50;;;;;;5016784;28;20041;-87
2021/11/11 01:37:41;;;;;;;34.88;21.05;;;9.90;98.50;;;;;;5016987;28;20057;-87
2021/11/11 01:40:08;;;;;;;37.53;21.33;;;9.80;98.40;;;;;;5016708;28;20518;-87
2021/11/11 01:42:49;;;;;;;27.92;18.10;;;9.90;98.40;;;;;;5016078;28;20048;-87
2021/11/11 01:45:16;;;;;;;39.90;21.92;;;9.90;98.40;;;;;;5017012;28;20057;-87
2021/11/11 01:47:42;;;;;;;35.30;20.75;;;9.90;98.40;;;;;;5016476;28;20068;-87
2021/11/11 01:50:11;;;;;;;33.30;20.63;;;9.90;98.40;;;;;;5016751;28;20053;-87
2021/11/11 01:52:37;;;;;;;28.48;19.05;;;9.80;98.40;;;;;;5016889;28;20467;-87
2021/11/11 01:55:05;;;;;;;30.30;18.77;;;9.80;98.40;;;;;;5016388;28;20068;-87
2021/11/11 01:57:30;;;;;;;45.22;24.65;;;9.80;98.50;;;;;;5017030;28;20041;-88
2021/11/11 01:59:56;;;;;;;32.00;20.42;;;9.90;98.40;;;;;;5016274;28;20038;-87
2021/11/11 02:02:26;;;;;;;46.83;24.75;;;9.80;98.40;;;;;;5016342;28;20045;-88
2021/11/11 02:04:52;;;;;;;40.88;24.38;;;9.80;98.50;;;;;;5016805;28;20084;-87
2021/11/11 02:07:17;;;;;;;37.17;22.38;;;9.90;98.50;;;;;;5016934;28;20077;-87
2021/11/11 02:09:43;;;;;;;36.65;21.25;;;9.90;98.50;;;;;;5016212;28;20040;-87
2021/11/11 02:12:09;;;;;;;28.83;19.63;;;9.90;98.40;;;;;;5016025;28;20048;-86
2021/11/11 02:14:35;;;;;;;39.75;22.83;;;9.90;98.40;;;;;;5016778;28;20489;-87
2021/11/11 02:17:01;;;;;;;37.03;20.65;;;9.80;98.40;;;;;;5015321;28;20048;-88
2021/11/11 02:19:26;;;;;;;34.65;21.23;;;9.90;98.40;;;;;;5016424;28;20492;-87
2021/11/11 02:21:55;;;;;;;36.08;21.58;;;9.90;98.40;;;;;;5016228;28;20397;-88
2021/11/11 02:24:21;;;;;;;35.10;21.50;;;9.90;98.40;;;;;;5015986;28;20095;-87
2021/11/11 02:26:49;;;;;;;44.40;23.02;;;9.80;98.30;;;;;;5016681;28;20042;-87
2021/11/11 02:29:15;;;;;;;34.30;21.20;;;9.80;98.30;;;;;;5016007;28;20546;-89
2021/11/11 02:31:41;;;;;;;34.88;20.15;;;9.90;98.30;;;;;;5016098;28;20052;-88
2021/11/11 02:34:07;;;;;;;41.22;23.08;;;9.90;98.30;;;;;;5016139;28;20049;-87
2021/11/11 02:36:32;;;;;;;39.63;23.42;;;9.90;98.30;;;;;;5016464;28;20053;-88
2021/11/11 02:39:00;;;;;;;31.75;20.30;;;9.80;98.30;;;;;;5015884;28;20037;-88
2021/11/11 02:41:26;;;;;;;38.70;23.17;;;9.90;98.40;;;;;;5016190;28;20125;-88
2021/11/11 02:43:52;;;;;;;39.00;21.65;;;9.90;98.40;;;;;;5014962;28;20052;-87
2021/11/11 02:46:17;;;;;;;37.42;22.73;;;9.80;98.40;;;;;;5015814;28;20057;-87
2021/11/11 02:48:43;;;;;;;38.05;22.40;;;9.80;98.40;;;;;;5016942;28;20077;-87
2021/11/11 02:51:09;;;;;;;38.58;22.45;;;9.90;98.40;;;;;;5014837;28;20037;-87
2021/11/11 02:53:38;;;;;;;34.45;20.85;;;9.90;98.40;;;;;;5016546;28;20064;-87
2021/11/11 02:56:04;;;;;;;41.35;23.67;;;9.90;98.40;;;;;;5016267;28;20045;-87
2021/11/11 02:58:30;;;;;;;37.80;21.85;;;9.90;98.50;;;;;;5014958;28;20034;-88
2021/11/11 03:01:02;;;;;;;35.35;21.92;;;9.90;98.40;;;;;;5016045;28;20049;-87
2021/11/11 03:03:28;;;;;;;35.35;22.00;;;9.90;98.40;;;;;;5016498;28;20073;-87
2021/11/11 03:05:55;;;;;;;41.90;23.70;;;9.90;98.40;;;;;;5015757;28;20515;-87
2021/11/11 03:08:21;;;;;;;40.03;22.88;;;9.90;98.40;;;;;;5015646;28;20042;-87
2021/11/11 03:10:47;;;;;;;35.40;20.75;;;9.90;98.50;;;;;;5015505;28;20052;-87
2021/11/11 03:13:14;;;;;;;41.25;23.70;;;9.90;98.40;;;;;;5014491;28;20042;-87
2021/11/11 03:15:43;;;;;;;40.20;23.50;;;9.90;98.40;;;;;;5015868;28;20128;-87
2021/11/11 03:18:11;;;;;;;44.00;24.92;;;9.90;98.40;;;;;;5016125;28;20049;-87
2021/11/11 03:20:37;;;;;;;50.28;26.67;;;9.90;98.50;;;;;;5015039;28;20469;-87
2021/11/11 03:23:04;;;;;;;46.85;24.92;;;9.90;98.50;;;;;;5015435;28;20045;-88
2021/11/11 03:25:32;;;;;;;47.08;26.52;;;9.90;98.60;;;;;;5015550;28;20042;-87
2021/11/11 03:27:58;;;;;;;39.38;22.80;;;9.90;98.60;;;;;;5015060;28;20068;-87
2021/11/11 03:30:25;;;;;;;41.33;23.55;;;9.90;98.60;;;;;;5015708;28;20037;-87
2021/11/11 03:32:51;;;;;;;36.05;22.00;;;9.90;98.50;;;;;;5015502;28;20084;-87
2021/11/11 03:35:18;;;;;;;40.17;23.70;;;9.90;98.60;;;;;;5014871;28;20049;-87
2021/11/11 03:37:45;;;;;;;34.08;20.73;;;9.90;98.60;;;;;;5015224;28;20041;-87
2021/11/11 03:40:14;;;;;;;35.53;22.27;;;9.90;98.60;;;;;;5014776;28;20041;-87
2021/11/11 03:42:40;;;;;;;46.92;26.45;;;9.90;98.60;;;;;;5015214;28;20128;-87
2021/11/11 03:45:08;;;;;;;39.95;22.55;;;9.90;98.60;;;;;;5015198;28;20504;-87
2021/11/11 03:47:34;;;;;;;42.58;25.10;;;9.90;98.60;;;;;;5014195;28;20401;-87
2021/11/11 03:49:59;;;;;;;44.28;23.75;;;9.90;98.60;;;;;;5014889;28;20037;-87
2021/11/11 03:52:25;;;;;;;35.05;21.98;;;9.90;98.50;;;;;;5015593;28;20111;-87
2021/11/11 03:54:51;;;;;;;39.95;24.33;;;9.90;98.50;;;;;;5014620;28;20128;-86
2021/11/11 03:57:16;;;;;;;36.28;23.83;;;9.90;98.50;;;;;;5014266;28;20073;-85
2021/11/11 03:59:42;;;;;;;33.20;22.48;;;9.90;98.60;;;;;;5015122;28;20460;-86
2021/11/11 04:02:08;;;;;;;43.65;25.65;;;9.90;98.50;;;;;;5013942;28;20524;-86
2021/11/11 04:04:34;;;;;;;46.90;27.00;;;9.90;98.90;;;;;;5015474;28;20129;-85
2021/11/11 04:07:00;;;;;;;39.92;23.73;;;9.90;98.70;;;;;;5014446;28;20033;-85
2021/11/11 04:09:26;;;;;;;41.58;25.83;;;9.90;98.70;;;;;;5014362;28;20116;-84
2021/11/11 04:11:51;;;;;;;39.97;26.20;;;9.90;98.70;;;;;;5015501;28;20104;-84
2021/11/11 04:14:17;;;;;;;38.20;24.33;;;9.90;98.70;;;;;;5015020;28;20045;-82
2021/11/11 04:16:43;;;;;;;39.03;24.77;;;9.90;98.70;;;;;;5014435;28;20116;-84
2021/11/11 04:19:08;;;;;;;35.10;23.55;;;9.90;98.80;;;;;;5014675;28;20124;-84
2021/11/11 04:21:34;;;;;;;35.13;22.40;;;9.80;98.70;;;;;;5015177;28;20127;-85
2021/11/11 04:24:00;;;;;;;34.28;22.77;;;9.80;98.70;;;;;;5015200;28;20045;-82
2021/11/11 04:26:29;;;;;;;49.22;28.88;;;9.80;98.70;;;;;;5019010;28;20037;-82
2021/11/11 04:29:03;;;;;;;40.65;24.67;;;9.90;98.80;;;;;;5019174;28;20454;-83
2021/11/11 04:31:38;;;;;;;56.83;28.88;;;9.80;98.80;;;;;;5017985;28;20045;-83
2021/11/11 04:34:07;;;;;;;42.72;27.60;;;9.90;98.90;;;;;;5018359;28;20096;-83
2021/11/11 04:39:54;;;;;;;56.70;29.48;;;9.80;99.00;;;;;;5018008;28;20103;-83
2021/11/11 04:47:06;;;;;;;49.00;28.40;;;9.80;99.10;;;;;;5018039;28;20107;-83
2021/11/11 04:49:56;;;;;;;49.45;28.10;;;9.80;99.20;;;;;;5018703;28;20059;-83
2021/11/11 05:00:45;;;;;;;40.03;25.73;;;9.80;99.10;;;;;;5017927;28;20820;-83
2021/11/11 05:06:08;;;;;;;57.95;35.85;;;9.80;99.10;;;;;;4979160;28;20049;-84
2021/11/11 05:08:34;;;;;;;55.03;31.70;;;9.70;99.20;;;;;;5017733;28;20038;-83
2021/11/11 05:11:01;;;;;;;39.55;28.42;;;9.80;99.30;;;;;;5017558;28;20080;-83
2021/11/11 05:13:27;;;;;;;49.92;32.53;;;9.80;99.20;;;;;;5017506;28;20045;-84
2021/11/11 05:15:53;;;;;;;52.70;33.22;;;9.80;99.30;;;;;;5017560;28;20381;-84
2021/11/11 05:18:19;;;;;;;52.25;34.88;;;9.80;99.30;;;;;;5016974;28;20037;-84
2021/11/11 05:20:44;;;;;;;62.00;38.28;;;9.80;99.20;;;;;;5016541;28;20042;-84
2021/11/11 05:23:10;;;;;;;46.88;31.42;;;9.80;99.30;;;;;;5007705;28;20128;-85
2021/11/11 05:25:36;;;;;;;66.50;43.65;;;9.80;99.30;;;;;;5015161;28;20048;-83
2021/11/11 05:28:02;;;;;;;64.63;42.40;;;9.80;99.40;;;;;;5016418;28;20128;-83
2021/11/11 05:30:28;;;;;;;54.97;35.72;;;9.80;99.40;;;;;;5000973;28;20096;-84
2021/11/11 05:32:55;;;;;;;60.72;42.38;;;9.80;99.40;;;;;;5016952;28;20053;-84
2021/11/11 05:35:21;;;;;;;48.25;37.30;;;9.80;99.40;;;;;;5013089;28;20041;-83
2021/11/11 05:37:48;;;;;;;47.50;35.50;;;9.80;99.40;;;;;;5018404;28;20050;-92
2021/11/11 05:40:16;;;;;;;51.15;38.63;;;9.80;99.30;;;;;;5018251;28;20052;-90
2021/11/11 05:42:42;;;;;;;46.30;33.50;;;9.80;99.30;;;;;;5018944;28;20076;-90
2021/11/11 05:45:25;;;;;;;75.40;46.80;;;9.80;99.30;;;;;;5018164;28;20067;-89
2021/11/11 05:47:51;;;;;;;44.58;34.03;;;9.90;99.40;;;;;;5015733;28;20421;-85
2021/11/11 05:50:18;;;;;;;53.33;38.40;;;9.80;99.40;;;;;;5017123;28;20033;-84
2021/11/11 05:52:44;;;;;;;47.30;38.13;;;9.80;99.30;;;;;;5012438;28;20049;-84
2021/11/11 05:55:10;;;;;;;59.22;41.28;;;9.80;99.40;;;;;;5014344;28;20095;-84
2021/11/11 05:57:36;;;;;;;51.90;36.58;;;9.80;99.40;;;;;;5012549;28;20038;-85
2021/11/11 06:00:04;;;;;;;52.03;38.45;;;9.80;99.50;;;;;;5014503;28;20088;-85
2021/11/11 06:02:30;;;;;;;51.53;35.20;;;9.80;99.50;;;;;;5006821;28;20105;-87
2021/11/11 06:04:55;;;;;;;58.45;38.78;;;9.80;99.60;;;;;;5017618;28;20109;-86
2021/11/11 06:07:21;;;;;;;50.75;36.17;;;9.90;99.60;;;;;;5017570;28;20052;-87
2021/11/11 06:09:46;;;;;;;57.70;37.15;;;9.80;99.60;;;;;;5016721;28;20055;-85
2021/11/11 06:12:12;;;;;;;50.97;34.75;;;9.80;99.90;;;;;;5016566;28;20046;-86
2021/11/11 06:14:37;;;;;;;51.83;37.22;;;9.80;99.60;;;;;;5016874;28;20076;-86
2021/11/11 06:17:07;;;;;;;48.03;33.63;;;9.80;99.60;;;;;;5001768;28;20410;-86
2021/11/11 06:19:34;;;;;;;46.10;33.80;;;9.80;99.70;;;;;;5016558;28;20048;-87
2021/11/11 06:22:00;;;;;;;43.65;33.63;;;9.80;99.60;;;;;;5015702;28;20132;-86
2021/11/11 06:24:25;;;;;;;53.42;37.00;;;9.80;99.70;;;;;;5016512;28;20477;-86
2021/11/11 06:26:51;;;;;;;53.25;36.88;;;9.80;99.70;;;;;;5016732;28;20053;-85
2021/11/11 06:29:20;;;;;;;59.67;38.42;;;9.80;99.70;;;;;;5015813;28;20099;-86
2021/11/11 06:31:45;;;;;;;59.40;39.30;;;9.80;99.80;;;;;;5016018;28;20041;-86
2021/11/11 06:34:11;;;;;;;57.58;38.28;;;9.80;99.70;;;;;;5016034;28;20041;-84
2021/11/11 06:36:36;;;;;;;47.20;34.00;;;9.80;99.80;;;;;;5015981;28;20463;-85
2021/11/11 06:39:04;;;;;;;55.30;36.83;;;9.80;99.80;;;;;;5016835;28;20075;-85
2021/11/11 06:41:30;;;;;;;55.30;36.25;;;9.80;99.80;;;;;;5016052;28;20042;-85
2021/11/11 06:43:56;;;;;;;54.97;37.35;;;9.80;99.80;;;;;;5015676;28;20043;-85
2021/11/11 06:46:22;;;;;;;56.70;36.72;;;9.80;99.80;;;;;;4990420;28;20410;-83
2021/11/11 06:48:47;;;;;;;58.30;35.97;;;9.80;99.80;;;;;;4985641;28;20057;-83
2021/11/11 06:51:13;;;;;;;56.45;37.40;;;9.80;99.80;;;;;;4992553;28;20461;-83
2021/11/11 06:53:39;;;;;;;57.35;35.50;;;9.80;99.80;;;;;;4993210;28;20445;-85
2021/11/11 06:56:04;;;;;;;52.65;35.63;;;9.80;99.80;;;;;;4993249;28;20042;-87
2021/11/11 06:58:30;;;;;;;50.85;34.97;;;9.80;99.80;;;;;;4993136;28;20133;-83
2021/11/11 07:00:59;;;;;;;45.17;32.65;;;9.80;99.80;;;;;;4992661;28;20046;-85
2021/11/11 07:03:26;;;;;;;48.83;33.83;;;9.80;99.80;;;;;;4992732;28;20038;-85
2021/11/11 07:05:51;;;;;;;63.75;40.55;;;9.90;99.80;;;;;;4992225;28;20051;-85
2021/11/11 07:08:17;;;;;;;61.55;39.55;;;9.80;99.70;;;;;;4993115;28;20135;-84
2021/11/11 07:10:46;;;;;;;58.70;38.13;;;9.80;99.80;;;;;;4993456;28;20034;-84
2021/11/11 07:13:12;;;;;;;50.80;33.72;;;9.80;99.90;;;;;;4991745;28;20437;-85
2021/11/11 07:15:39;;;;;;;55.15;34.80;;;9.80;99.80;;;;;;4993017;28;20047;-85
2021/11/11 07:18:10;;;;;;;60.65;40.05;;;9.90;99.80;;;;;;4992089;28;20128;-84
2021/11/11 07:20:36;;;;;;;62.70;38.95;;;9.80;99.80;;;;;;4993209;28;20129;-84
2021/11/11 07:23:04;;;;;;;51.80;33.92;;;9.80;99.80;;;;;;4992297;28;20089;-84
2021/11/11 07:25:31;;;;;;;58.70;38.72;;;9.80;99.80;;;;;;4992226;28;20045;-84
2021/11/11 07:27:57;;;;;;;68.97;41.60;;;9.80;99.80;;;;;;4992277;28;20046;-85
2021/11/11 07:30:24;;;;;;;59.05;37.78;;;9.80;99.90;;;;;;4992811;28;20114;-84
2021/11/11 07:32:50;;;;;;;61.72;39.50;;;9.80;99.90;;;;;;4991983;28;20375;-84
2021/11/11 07:35:17;;;;;;;55.38;37.22;;;9.80;99.90;;;;;;4992421;28;20054;-81
2021/11/11 07:37:45;;;;;;;50.85;35.28;;;9.80;99.90;;;;;;4993206;28;20057;-82
2021/11/11 07:40:14;;;;;;;47.65;34.25;;;9.80;99.90;;;;;;4992214;28;20177;-82
2021/11/11 07:42:40;;;;;;;64.63;42.05;;;9.80;99.90;;;;;;4992970;28;20510;-83
2021/11/11 07:45:08;;;;;;;57.05;34.65;;;9.80;99.90;;;;;;4996490;28;20061;-82
2021/11/11 07:47:34;;;;;;;62.75;39.80;;;9.80;99.90;;;;;;5014721;28;20052;-82
2021/11/11 07:50:02;;;;;;;61.25;38.55;;;9.80;99.90;;;;;;5015865;28;20056;-82
2021/11/11 07:52:29;;;;;;;51.55;36.40;;;9.80;99.90;;;;;;5015905;28;20460;-82
2021/11/11 07:54:57;;;;;;;48.75;34.38;;;9.80;99.90;;;;;;5014816;28;20406;-82
2021/11/11 07:57:24;;;;;;;50.20;34.92;;;9.80;99.90;;;;;;5016117;28;20091;-83
2021/11/11 07:59:51;;;;;;;52.03;33.38;;;9.80;99.90;;;;;;5019981;28;20045;-83
2021/11/11 08:02:18;;;;;;;53.38;36.58;;;9.90;99.90;;;;;;5018499;28;20061;-83
2021/11/11 08:04:44;;;;;;;61.90;41.42;;;9.90;99.90;;;;;;5019486;28;20045;-83
2021/11/11 08:07:10;;;;;;;60.88;40.58;;;9.90;99.90;;;;;;5018873;28;20033;-83
2021/11/11 08:09:36;;;;;;;58.13;38.08;;;9.90;99.90;;;;;;5019123;28;20045;-83
2021/11/11 08:12:01;;;;;;;64.03;40.25;;;9.80;99.90;;;;;;5019347;28;20469;-82
2021/11/11 08:14:28;;;;;;;62.72;40.97;;;9.90;99.90;;;;;;5018523;28;20045;-82
2021/11/11 08:16:54;;;;;;;67.10;42.72;;;9.90;99.90;;;;;;5019438;28;20500;-82
2021/11/11 08:19:19;;;;;;;57.72;39.42;;;9.90;99.90;;;;;;5019168;28;20046;-82
2021/11/11 08:21:45;;;;;;;61.13;39.80;;;9.90;99.90;;;;;;5018448;28;20081;-82
2021/11/11 08:24:11;;;;;;;53.90;36.20;;;9.90;99.90;;;;;;5018804;28;20049;-82
2021/11/11 08:26:36;;;;;;;66.00;40.65;;;9.90;99.90;;;;;;5019220;28;20044;-83
2021/11/11 08:29:05;;;;;;;57.60;39.40;;;9.90;99.90;;;;;;5018028;28;20127;-83
2021/11/11 08:31:31;;;;;;;51.20;35.42;;;9.90;99.90;;;;;;5018779;28;20052;-83
2021/11/11 08:33:56;;;;;;;52.97;36.15;;;9.90;99.90;;;;;;5018796;28;20397;-83
2021/11/11 08:36:23;;;;;;;58.13;37.30;;;9.90;99.90;;;;;;5018467;28;20084;-83
2021/11/11 08:38:49;;;;;;;60.88;39.67;;;9.90;99.90;;;;;;5018872;28;20050;-83
2021/11/11 08:41:14;;;;;;;59.17;39.10;;;9.90;99.90;;;;;;5018696;28;20037;-83
2021/11/11 08:43:40;;;;;;;53.40;36.60;;;9.90;99.90;;;;;;5017841;28;20418;-83
2021/11/11 08:46:05;;;;;;;68.13;39.58;;;9.90;99.90;;;;;;5005348;28;20402;-82
2021/11/11 08:48:33;;;;;;;54.20;36.08;;;9.90;99.90;;;;;;4995876;28;20096;-83
2021/11/11 08:50:59;;;;;;;68.15;42.63;;;10.00;99.90;;;;;;4994415;28;20045;-83
2021/11/11 08:53:25;;;;;;;52.40;36.22;;;10.00;99.90;;;;;;4996112;28;20038;-83
2021/11/11 08:55:50;;;;;;;68.20;41.72;;;10.00;99.90;;;;;;4995710;28;20546;-83
2021/11/11 08:58:16;;;;;;;53.40;37.35;;;10.00;99.90;;;;;;4994552;28;20054;-83
2021/11/11 09:00:48;;;;;;;56.00;37.38;;;10.00;99.90;;;;;;4995383;28;20145;-83
2021/11/11 09:03:15;;;;;;;58.17;37.90;;;10.00;99.90;;;;;;4995446;28;20054;-83
2021/11/11 09:05:41;;;;;;;50.80;35.15;;;10.00;99.90;;;;;;4994894;28;20049;-83
2021/11/11 09:08:08;;;;;;;51.38;35.33;;;10.00;99.90;;;;;;4995535;28;20046;-82
2021/11/11 09:10:39;;;;;;;63.20;39.92;;;10.00;99.90;;;;;;4994340;28;20394;-83
2021/11/11 09:13:05;;;;;;;57.00;37.80;;;10.00;99.90;;;;;;4995197;28;20482;-82
2021/11/11 09:15:30;;;;;;;60.97;40.97;;;10.10;99.90;;;;;;4995188;28;20040;-83
2021/11/11 09:17:59;;;;;;;62.10;40.45;;;10.10;99.90;;;;;;4994247;28;20522;-82
2021/11/11 09:20:25;;;;;;;58.50;39.55;;;10.10;99.90;;;;;;4995093;28;20521;-82
2021/11/11 09:22:56;;;;;;;64.97;41.85;;;10.10;99.90;;;;;;4995152;28;20486;-82
2021/11/11 09:25:23;;;;;;;60.75;39.08;;;10.10;99.90;;;;;;4994847;28;20050;-82
2021/11/11 09:27:49;;;;;;;60.03;39.55;;;10.10;99.90;;;;;;4995156;28;20034;-82
2021/11/11 09:30:19;;;;;;;56.47;38.70;;;10.20;99.90;;;;;;4994263;28;20053;-82
2021/11/11 09:32:45;;;;;;;65.43;43.10;;;10.20;99.90;;;;;;4991796;28;20081;-81
2021/11/11 09:35:16;;;;;;;54.10;38.95;;;10.20;99.90;;;;;;4979299;28;20081;-82
2021/11/11 09:37:42;;;;;;;60.80;39.35;;;10.30;99.90;;;;;;4994356;28;20066;-83
2021/11/11 09:40:15;;;;;;;69.15;41.92;;;10.30;99.90;;;;;;4993583;28;20046;-81
2021/11/11 09:42:42;;;;;;;60.47;39.80;;;10.30;99.90;;;;;;4995221;28;20054;-84
2021/11/11 09:45:10;;;;;;;61.13;39.45;;;10.30;99.90;;;;;;4989334;28;20038;-84
2021/11/11 09:47:37;;;;;;;57.78;38.03;;;10.30;99.90;;;;;;5013407;28;20081;-84
2021/11/11 09:50:06;;;;;;;57.35;38.38;;;10.30;99.90;;;;;;5004593;28;20088;-85
2021/11/11 09:52:32;;;;;;;68.00;42.17;;;10.40;99.90;;;;;;5009585;28;20037;-84
2021/11/11 10:00:26;;;;;;;66.40;42.30;;;10.40;99.90;;;;;;5016501;28;20045;-84
2021/11/11 10:02:54;;;;;;;66.57;41.75;;;10.40;99.90;;;;;;5012681;28;20042;-85
2021/11/11 10:05:20;;;;;;;65.32;41.13;;;10.50;99.90;;;;;;5016842;28;20068;-84
2021/11/11 10:07:46;;;;;;;70.40;42.58;;;10.50;99.90;;;;;;5012932;28;20409;-84
2021/11/11 10:10:37;;;;;;;54.63;37.28;;;10.50;99.90;;;;;;5013342;28;20045;-84
2021/11/11 10:13:13;;;;;;;60.47;39.05;;;10.50;99.90;;;;;;5016435;28;20049;-85
2021/11/11 10:15:57;;;;;;;70.93;43.70;;;10.50;99.90;;;;;;5016081;28;20485;-84
2021/11/11 10:18:36;;;;;;;53.20;36.05;;;10.50;99.90;;;;;;5016901;28;20049;-87
2021/11/11 10:21:17;;;;;;;66.20;41.70;;;10.60;99.90;;;;;;5014059;28;20039;-87
2021/11/11 10:23:42;;;;;;;66.38;42.17;;;10.60;99.90;;;;;;5017111;28;20128;-87
2021/11/11 10:26:21;;;;;;;82.82;46.85;;;10.60;99.90;;;;;;5015863;28;20128;-87
2021/11/11 10:28:46;;;;;;;75.45;45.78;;;10.60;99.90;;;;;;5015735;28;20432;-87
2021/11/11 10:31:18;;;;;;;82.13;47.45;;;10.70;99.90;;;;;;5016250;28;20044;-88
2021/11/11 10:34:05;;;;;;;73.75;44.97;;;10.70;99.90;;;;;;5016330;28;20045;-87
2021/11/11 10:36:44;;;;;;;78.43;47.95;;;10.70;99.90;;;;;;5015330;28;20511;-87
2021/11/11 10:39:12;;;;;;;76.65;45.90;;;10.70;99.90;;;;;;5015269;28;20120;-88
2021/11/11 10:41:38;;;;;;;87.00;49.90;;;10.70;99.90;;;;;;5015980;28;20041;-88
2021/11/11 10:44:32;;;;;;;82.90;47.65;;;10.80;99.90;;;;;;5013434;28;20136;-87
2021/11/11 10:47:05;;;;;;;76.50;45.28;;;10.80;99.90;;;;;;5012399;28;20058;-87
2021/11/11 10:49:37;;;;;;;88.85;49.53;;;10.80;99.90;;;;;;5015155;28;20072;-87
2021/11/11 10:52:27;;;;;;;58.63;40.35;;;10.80;99.90;;;;;;5016005;28;20124;-88
2021/11/11 10:55:14;;;;;;;60.28;40.05;;;10.90;99.90;;;;;;5015734;28;20049;-88
2021/11/11 10:58:05;;;;;;;76.63;47.03;;;10.90;99.90;;;;;;5031786;28;20095;-87
2021/11/11 11:01:06;;;;;;;74.30;44.20;;;10.90;99.90;;;;;;5015967;28;20047;-87
2021/11/11 11:03:40;;;;;;;55.22;38.45;;;10.90;99.90;;;;;;4995178;28;20379;-87
2021/11/11 11:06:08;;;;;;;72.65;45.67;;;11.00;99.90;;;;;;4995808;28;20045;-87
2021/11/11 11:08:49;;;;;;;73.05;46.47;;;11.00;99.90;;;;;;5019214;23;20477;-87
2021/11/11 11:11:23;;;;;;;46.58;33.78;;;11.00;99.90;;;;;;4978336;28;20078;-86
2021/11/11 11:13:57;;;;;;;74.10;46.25;;;11.00;99.90;;;;;;4976525;28;20124;-87
2021/11/11 11:16:26;;;;;;;71.85;45.58;;;11.00;99.90;;;;;;4991176;28;20491;-87
2021/11/11 11:18:58;;;;;;;68.25;42.88;;;11.00;99.90;;;;;;4993434;28;20092;-87
2021/11/11 11:21:30;;;;;;;71.43;46.75;;;11.10;99.90;;;;;;4994271;28;20437;-86
2021/11/11 11:23:59;;;;;;;73.18;45.53;;;11.10;99.90;;;;;;4992507;28;20137;-86
2021/11/11 11:26:32;;;;;;;62.50;43.55;;;11.10;99.90;;;;;;4987929;28;20034;-86
2021/11/11 11:29:11;;;;;;;63.53;42.40;;;11.10;99.90;;;;;;4982177;28;20053;-88
2021/11/11 11:32:25;;;;;;;52.03;39.20;;;11.10;99.90;;;;;;4991893;28;20282;-86
2021/11/11 11:34:27;;;;;;;75.07;45.78;;;11.10;99.90;;;;;;4962725;28;20043;-84
2021/11/11 11:36:59;;;;;;;65.63;42.83;;;11.10;99.90;;;;;;4975599;28;20046;-87
2021/11/11 11:39:45;;;;;;;69.93;46.17;;;11.20;99.90;;;;;;4950488;28;20454;-86
2021/11/11 11:42:16;;;;;;;75.75;46.95;;;11.20;99.90;;;;;;4991838;28;20125;-86
2021/11/11 11:44:54;;;;;;;64.78;43.50;;;11.20;99.90;;;;;;4992524;28;20537;-85
2021/11/11 11:47:23;;;;;;;75.32;48.33;;;11.20;99.90;;;;;;4991105;28;20482;-85
2021/11/11 11:50:03;;;;;;;59.10;43.08;;;11.20;99.90;;;;;;4992475;28;20053;-84
2021/11/11 11:52:33;;;;;;;52.83;37.53;;;11.20;99.90;;;;;;4992775;28;20046;-84
2021/11/11 12:00:30;;;;;;;58.22;39.88;;;11.30;99.90;;;;;;4991923;28;20046;-84
2021/11/11 12:05:33;;;;;;;65.55;43.05;;;11.30;99.90;;;;;;4991875;28;20054;-83
2021/11/11 12:40:03;;;;;;;70.93;43.50;;;11.40;99.90;;;;;;5015157;28;20119;-84
2021/11/11 12:42:41;;;;;;;96.03;55.83;;;11.40;99.90;;;;;;5014501;28;20037;-83
2021/11/11 12:45:18;;;;;;;87.85;50.67;;;11.50;99.90;;;;;;5015065;28;20093;-84
2021/11/11 12:47:54;;;;;;;86.22;49.10;;;11.50;99.90;;;;;;5015927;28;20444;-84
2021/11/11 12:50:28;;;;;;;65.80;43.03;;;11.50;99.90;;;;;;5018304;28;20049;-84
2021/11/11 12:53:17;;;;;;;90.72;52.72;;;11.50;99.90;;;;;;5018818;28;20049;-85
2021/11/11 12:55:45;;;;;;;83.30;49.13;;;11.50;99.90;;;;;;4973236;28;20100;-84
2021/11/11 12:58:18;;;;;;;87.60;52.50;;;11.50;99.90;;;;;;5018000;28;20041;-84
2021/11/11 13:00:54;;;;;;;92.53;52.35;;;11.50;99.90;;;;;;5018695;28;20049;-83
2021/11/11 13:03:20;;;;;;;89.10;50.55;;;11.50;99.90;;;;;;5017641;28;20042;-82
2021/11/11 13:05:52;;;;;;;90.18;50.17;;;11.50;99.90;;;;;;5018134;28;20502;-83
2021/11/11 13:08:24;;;;;;;73.72;46.22;;;11.50;99.90;;;;;;5018269;28;20054;-84
2021/11/11 13:10:52;;;;;;;85.25;49.55;;;11.50;99.90;;;;;;5017756;28;20057;-84
2021/11/11 13:13:25;;;;;;;81.85;48.45;;;11.50;99.90;;;;;;5017749;28;20049;-84
2021/11/11 13:15:52;;;;;;;73.22;44.63;;;11.50;99.90;;;;;;5018030;28;20052;-83
2021/11/11 13:18:42;;;;;;;74.10;45.70;;;11.50;99.90;;;;;;5016375;28;20095;-83
2021/11/11 13:21:21;;;;;;;85.00;50.20;;;11.50;99.90;;;;;;5011691;28;20071;-84
2021/11/11 13:24:17;;;;;;;83.70;50.67;;;11.50;99.90;;;;;;5023800;28;20489;-83
2021/11/11 13:59:30;;;;;;;83.32;51.10;;;11.40;99.90;;;;;;5016820;28;20041;-91
2021/11/11 16:01:57;;;;;;;76.32;46.17;;;11.40;99.90;;;;;;5013834;28;20076;-91
2021/11/11 16:22:00;;;;;;;87.13;47.20;;;11.40;99.90;;;;;;5017708;28;20081;-94
2021/11/11 16:27:17;;;;;;;96.65;47.55;;;11.40;99.90;;;;;;5017971;28;20085;-94
2021/11/11 16:30:18;;;;;;;90.88;46.90;;;11.40;99.90;;;;;;5019914;28;20112;-93
2021/11/11 16:32:53;;;;;;;62.15;38.65;;;11.40;99.90;;;;;;5021045;28;20046;-94
2021/11/11 16:35:25;;;;;;;70.53;39.00;;;11.40;99.90;;;;;;5017665;28;20041;-94
2021/11/11 16:38:03;;;;;;;54.63;36.08;;;11.40;99.90;;;;;;5018101;28;20155;-95